createdAt,value
2016-09-19T00:00:17.094Z,0
2016-09-19T00:01:17.053Z,0
2016-09-19T00:02:17.097Z,0
2016-09-19T00:03:17.079Z,0
2016-09-19T00:04:17.099Z,0
2016-09-19T00:05:17.066Z,0
2016-09-19T00:06:17.082Z,0
2016-09-19T00:07:17.073Z,0
2016-09-19T00:08:17.077Z,0
2016-09-19T00:09:17.090Z,0
2016-09-19T00:10:17.110Z,0
2016-09-19T00:11:17.103Z,0
2016-09-19T00:12:17.093Z,0
2016-09-19T00:13:17.097Z,0
2016-09-19T00:14:17.123Z,0
2016-09-19T00:15:17.113Z,0
2016-09-19T00:16:17.095Z,0
2016-09-19T00:17:17.126Z,0
2016-09-19T00:18:17.138Z,0
2016-09-19T00:19:17.109Z,0
2016-09-19T00:20:17.120Z,0
2016-09-19T00:21:17.155Z,0
2016-09-19T00:22:17.120Z,0
2016-09-19T00:23:17.088Z,0
2016-09-19T00:24:17.118Z,0
2016-09-19T00:25:17.091Z,0
2016-09-19T00:26:17.133Z,0
2016-09-19T00:27:17.092Z,0
2016-09-19T00:28:17.132Z,0
2016-09-19T00:29:17.104Z,0
2016-09-19T00:30:17.141Z,0
2016-09-19T00:31:17.140Z,0
2016-09-19T00:32:17.130Z,0
2016-09-19T00:33:17.145Z,0
2016-09-19T00:34:17.093Z,0
2016-09-19T00:35:17.121Z,0
2016-09-19T00:36:17.176Z,0
2016-09-19T00:37:17.145Z,0
2016-09-19T00:38:17.210Z,0
2016-09-19T00:39:17.110Z,0
2016-09-19T00:40:17.110Z,0
2016-09-19T00:41:17.241Z,0
2016-09-19T00:42:17.229Z,0
2016-09-19T00:43:17.203Z,0
2016-09-19T00:44:17.242Z,0
2016-09-19T00:45:17.241Z,0
2016-09-19T00:46:17.209Z,0
2016-09-19T00:47:17.213Z,0
2016-09-19T00:48:17.148Z,0
2016-09-19T00:49:17.139Z,0
2016-09-19T00:50:17.135Z,0
2016-09-19T00:51:17.152Z,0
2016-09-19T00:52:17.133Z,0
2016-09-19T00:53:17.127Z,0
2016-09-19T00:54:17.123Z,0
2016-09-19T00:55:17.152Z,0
2016-09-19T00:56:17.234Z,0
2016-09-19T00:57:17.134Z,0
2016-09-19T00:58:17.133Z,0
2016-09-19T00:59:17.124Z,0
2016-09-19T01:00:17.147Z,0
2016-09-19T01:01:17.194Z,0
2016-09-19T01:02:17.137Z,0
2016-09-19T01:03:17.143Z,0
2016-09-19T01:04:17.170Z,0
2016-09-19T01:05:17.158Z,0
2016-09-19T01:06:17.157Z,0
2016-09-19T01:07:17.140Z,0
2016-09-19T01:08:17.191Z,0
2016-09-19T01:09:17.188Z,0
2016-09-19T01:10:17.169Z,0
2016-09-19T01:11:17.183Z,0
2016-09-19T01:12:17.145Z,0
2016-09-19T01:13:17.145Z,0
2016-09-19T01:14:17.143Z,0
2016-09-19T01:15:17.197Z,0
2016-09-19T01:16:17.204Z,0
2016-09-19T01:17:17.155Z,0
2016-09-19T01:18:17.180Z,0
2016-09-19T01:19:17.155Z,0
2016-09-19T01:20:17.162Z,0
2016-09-19T01:21:17.152Z,0
2016-09-19T01:22:17.190Z,0
2016-09-19T01:23:17.196Z,0
2016-09-19T01:24:17.203Z,0
2016-09-19T01:25:17.183Z,0
2016-09-19T01:26:17.180Z,0
2016-09-19T01:27:17.206Z,0
2016-09-19T01:28:17.175Z,0
2016-09-19T01:29:17.147Z,0
2016-09-19T01:30:17.229Z,0
2016-09-19T01:31:17.165Z,0
2016-09-19T01:32:17.150Z,0
2016-09-19T01:33:17.156Z,0
2016-09-19T01:34:17.165Z,0
2016-09-19T01:35:17.157Z,0
2016-09-19T01:36:17.178Z,0
2016-09-19T01:37:17.214Z,0
2016-09-19T01:38:17.159Z,0
2016-09-19T01:39:17.252Z,0
2016-09-19T01:40:17.158Z,0
2016-09-19T01:41:17.168Z,0
2016-09-19T01:42:17.176Z,0
2016-09-19T01:43:17.251Z,0
2016-09-19T01:44:17.191Z,0
2016-09-19T01:45:17.165Z,0
2016-09-19T01:46:17.156Z,0
2016-09-19T01:47:17.188Z,0
2016-09-19T01:48:17.192Z,0
2016-09-19T01:49:17.176Z,0
2016-09-19T01:50:17.186Z,0
2016-09-19T01:51:17.222Z,0
2016-09-19T01:52:17.180Z,0
2016-09-19T01:53:17.203Z,0
2016-09-19T01:54:17.172Z,0
2016-09-19T01:55:17.173Z,0
2016-09-19T01:56:17.214Z,0
2016-09-19T01:57:17.221Z,0
2016-09-19T01:58:17.203Z,0
2016-09-19T01:59:17.194Z,0
2016-09-19T02:00:17.217Z,0
2016-09-19T02:01:17.240Z,0
2016-09-19T02:02:17.204Z,0
2016-09-19T02:03:17.182Z,0
2016-09-19T02:04:17.214Z,0
2016-09-19T02:05:17.222Z,0
2016-09-19T02:06:17.180Z,0
2016-09-19T02:07:17.219Z,0
2016-09-19T02:08:17.220Z,0
2016-09-19T02:09:17.202Z,0
2016-09-19T02:10:17.216Z,0
2016-09-19T02:11:17.218Z,0
2016-09-19T02:12:17.173Z,0
2016-09-19T02:13:17.212Z,0
2016-09-19T02:14:17.205Z,0
2016-09-19T02:15:17.235Z,0
2016-09-19T02:16:17.211Z,0
2016-09-19T02:17:17.185Z,0
2016-09-19T02:18:17.190Z,0
2016-09-19T02:19:17.230Z,0
2016-09-19T02:20:17.252Z,0
2016-09-19T02:21:17.217Z,0
2016-09-19T02:22:17.216Z,0
2016-09-19T02:23:17.213Z,0
2016-09-19T02:24:17.217Z,0
2016-09-19T02:25:17.198Z,0
2016-09-19T02:26:17.191Z,0
2016-09-19T02:27:17.222Z,0
2016-09-19T02:28:17.246Z,0
2016-09-19T02:29:17.239Z,0
2016-09-19T02:30:17.224Z,0
2016-09-19T02:31:17.242Z,0
2016-09-19T02:32:17.212Z,0
2016-09-19T02:33:17.229Z,0
2016-09-19T02:34:17.199Z,0
2016-09-19T02:35:17.224Z,0
2016-09-19T02:36:17.213Z,0
2016-09-19T02:37:17.268Z,0
2016-09-19T02:38:17.258Z,0
2016-09-19T02:39:17.219Z,0
2016-09-19T02:40:17.269Z,0
2016-09-19T02:41:17.230Z,0
2016-09-19T02:42:17.223Z,0
2016-09-19T02:43:17.233Z,0
2016-09-19T02:44:17.207Z,0
2016-09-19T02:45:17.227Z,0
2016-09-19T02:46:17.198Z,0
2016-09-19T02:47:17.225Z,0
2016-09-19T02:48:17.234Z,0
2016-09-19T02:49:17.229Z,0
2016-09-19T02:50:17.212Z,0
2016-09-19T02:51:17.229Z,0
2016-09-19T02:52:17.257Z,0
2016-09-19T02:53:17.203Z,0
2016-09-19T02:54:17.228Z,0
2016-09-19T02:55:17.223Z,0
2016-09-19T02:56:17.270Z,0
2016-09-19T02:57:17.240Z,0
2016-09-19T02:58:17.237Z,0
2016-09-19T02:59:17.236Z,0
2016-09-19T03:00:17.232Z,0
2016-09-19T03:01:17.251Z,0
2016-09-19T03:02:17.253Z,0
2016-09-19T03:03:17.244Z,0
2016-09-19T03:04:17.226Z,0
2016-09-19T03:05:17.244Z,0
2016-09-19T03:06:17.219Z,0
2016-09-19T03:07:17.257Z,0
2016-09-19T03:08:17.246Z,0
2016-09-19T03:09:17.213Z,0
2016-09-19T03:10:17.229Z,0
2016-09-19T03:11:17.270Z,0
2016-09-19T03:12:17.234Z,0
2016-09-19T03:13:17.239Z,0
2016-09-19T03:14:17.257Z,0
2016-09-19T03:15:17.223Z,0
2016-09-19T03:16:17.262Z,0
2016-09-19T03:17:17.249Z,0
2016-09-19T03:18:17.270Z,0
2016-09-19T03:19:17.259Z,0
2016-09-19T03:20:17.254Z,0
2016-09-19T03:21:17.263Z,0
2016-09-19T03:22:17.257Z,0
2016-09-19T03:23:17.261Z,0
2016-09-19T03:24:17.225Z,0
2016-09-19T03:25:17.283Z,0
2016-09-19T03:26:17.274Z,0
2016-09-19T03:27:17.289Z,0
2016-09-19T03:28:17.304Z,0
2016-09-19T03:29:17.309Z,0
2016-09-19T03:30:17.301Z,0
2016-09-19T03:31:17.280Z,0
2016-09-19T03:32:17.253Z,0
2016-09-19T03:33:17.268Z,0
2016-09-19T03:34:17.275Z,0
2016-09-19T03:35:17.248Z,0
2016-09-19T03:36:17.302Z,0
2016-09-19T03:37:17.281Z,0
2016-09-19T03:38:17.281Z,0
2016-09-19T03:39:17.295Z,0
2016-09-19T03:40:17.304Z,0
2016-09-19T03:41:17.279Z,0
2016-09-19T03:42:17.254Z,0
2016-09-19T03:43:17.276Z,0
2016-09-19T03:44:17.255Z,0
2016-09-19T03:45:17.263Z,0
2016-09-19T03:46:17.254Z,0
2016-09-19T03:47:17.274Z,0
2016-09-19T03:48:17.292Z,0
2016-09-19T03:49:17.327Z,0
2016-09-19T03:50:17.291Z,0
2016-09-19T03:51:17.262Z,0
2016-09-19T03:52:17.280Z,0
2016-09-19T03:53:17.281Z,0
2016-09-19T03:54:17.295Z,0
2016-09-19T03:55:17.320Z,0
2016-09-19T03:56:17.279Z,0
2016-09-19T03:57:17.302Z,0
2016-09-19T03:58:17.279Z,0
2016-09-19T03:59:17.291Z,0
2016-09-19T04:00:17.283Z,0
2016-09-19T04:01:17.261Z,0
2016-09-19T04:02:17.305Z,0
2016-09-19T04:03:17.283Z,0
2016-09-19T04:04:17.283Z,0
2016-09-19T04:05:17.311Z,0
2016-09-19T04:06:17.318Z,0
2016-09-19T04:07:17.324Z,0
2016-09-19T04:08:17.316Z,0
2016-09-19T04:09:18.138Z,0
2016-09-19T04:10:17.280Z,0
2016-09-19T04:11:17.299Z,0
2016-09-19T04:12:17.294Z,0
2016-09-19T04:13:17.308Z,0
2016-09-19T04:14:17.283Z,0
2016-09-19T04:15:18.078Z,0
2016-09-19T04:16:24.652Z,0
2016-09-19T04:17:18.573Z,0
2016-09-19T04:18:28.067Z,0
2016-09-19T04:19:17.350Z,0
2016-09-19T04:20:25.208Z,0
2016-09-19T04:21:27.149Z,0
2016-09-19T04:22:27.201Z,0
2016-09-19T04:23:27.283Z,0
2016-09-19T04:24:27.977Z,0
2016-09-19T04:25:27.205Z,0
2016-09-19T04:26:27.980Z,0
2016-09-19T04:27:28.230Z,0
2016-09-19T04:28:27.949Z,0
2016-09-19T04:29:26.871Z,0
2016-09-19T04:30:27.203Z,0
2016-09-19T04:31:28.054Z,0
2016-09-19T04:32:28.467Z,0
2016-09-19T04:33:28.391Z,0
2016-09-19T04:34:28.536Z,0
2016-09-19T04:35:27.606Z,0
2016-09-19T04:36:21.642Z,0
2016-09-19T04:37:26.967Z,0
2016-09-19T04:38:26.909Z,0
2016-09-19T04:39:26.614Z,0
2016-09-19T04:40:27.840Z,0
2016-09-19T04:41:28.048Z,0
2016-09-19T04:42:25.053Z,0
2016-09-19T04:43:17.315Z,4
2016-09-19T04:44:17.322Z,4
2016-09-19T04:45:17.357Z,0
2016-09-19T04:46:17.315Z,0
2016-09-19T04:47:17.382Z,4
2016-09-19T04:48:17.352Z,4
2016-09-19T04:49:17.379Z,4
2016-09-19T04:50:17.340Z,4
2016-09-19T04:51:17.349Z,8
2016-09-19T04:52:17.372Z,8
2016-09-19T04:53:17.366Z,4
2016-09-19T04:54:17.349Z,8
2016-09-19T04:55:17.371Z,12
2016-09-19T04:56:17.561Z,12
2016-09-19T04:57:17.389Z,16
2016-09-19T04:58:17.387Z,20
2016-09-19T04:59:17.377Z,16
2016-09-19T05:00:17.368Z,20
2016-09-19T05:01:17.404Z,28
2016-09-19T05:02:17.379Z,32
2016-09-19T05:03:17.362Z,32
2016-09-19T05:04:17.402Z,36
2016-09-19T05:05:17.359Z,44
2016-09-19T05:06:17.362Z,44
2016-09-19T05:07:17.361Z,52
2016-09-19T05:08:17.429Z,56
2016-09-19T05:09:17.391Z,60
2016-09-19T05:10:17.393Z,68
2016-09-19T05:11:17.688Z,76
2016-09-19T05:12:17.430Z,80
2016-09-19T05:13:17.395Z,92
2016-09-19T05:14:17.371Z,100
2016-09-19T05:15:17.409Z,112
2016-09-19T05:16:17.385Z,120
2016-09-19T05:17:17.396Z,132
2016-09-19T05:18:17.383Z,144
2016-09-19T05:19:17.351Z,156
2016-09-19T05:20:17.379Z,164
2016-09-19T05:21:17.437Z,168
2016-09-19T05:22:17.389Z,180
2016-09-19T05:23:17.384Z,200
2016-09-19T05:24:17.834Z,216
2016-09-19T05:25:17.374Z,236
2016-09-19T05:26:17.375Z,256
2016-09-19T05:27:17.356Z,280
2016-09-19T05:28:17.375Z,300
2016-09-19T05:29:17.373Z,324
2016-09-19T05:30:17.420Z,348
2016-09-19T05:31:17.365Z,380
2016-09-19T05:32:17.423Z,408
2016-09-19T05:33:17.398Z,440
2016-09-19T05:34:17.388Z,476
2016-09-19T05:35:17.352Z,516
2016-09-19T05:36:17.428Z,560
2016-09-19T05:37:18.327Z,612
2016-09-19T05:38:17.414Z,672
2016-09-19T05:39:17.405Z,736
2016-09-19T05:40:17.417Z,804
2016-09-19T05:41:17.417Z,864
2016-09-19T05:42:17.386Z,928
2016-09-19T05:43:17.410Z,988
2016-09-19T05:44:17.384Z,1048
2016-09-19T05:45:17.405Z,1100
2016-09-19T05:46:17.397Z,1144
2016-09-19T05:47:17.421Z,1180
2016-09-19T05:48:17.413Z,1232
2016-09-19T05:49:17.430Z,1276
2016-09-19T05:50:17.388Z,1336
2016-09-19T05:51:17.378Z,1404
2016-09-19T05:52:17.394Z,1468
2016-09-19T05:53:17.384Z,1524
2016-09-19T05:54:17.437Z,1568
2016-09-19T05:55:17.369Z,1604
2016-09-19T05:56:17.428Z,1660
2016-09-19T05:57:17.425Z,1724
2016-09-19T05:58:17.442Z,1780
2016-09-19T05:59:17.402Z,1812
2016-09-19T06:00:17.445Z,1848
2016-09-19T06:01:17.419Z,1884
2016-09-19T06:02:17.424Z,1924
2016-09-19T06:03:17.415Z,1996
2016-09-19T06:04:17.436Z,2108
2016-09-19T06:05:17.382Z,2252
2016-09-19T06:06:17.429Z,2412
2016-09-19T06:07:17.455Z,2576
2016-09-19T06:08:17.412Z,2740
2016-09-19T06:09:17.402Z,2940
2016-09-19T06:10:17.414Z,3164
2016-09-19T06:11:17.413Z,3380
2016-09-19T06:12:17.441Z,3608
2016-09-19T06:13:17.456Z,3844
2016-09-19T06:14:17.530Z,4048
2016-09-19T06:15:17.509Z,4176
2016-09-19T06:16:17.450Z,4196
2016-09-19T06:17:17.518Z,4212
2016-09-19T06:18:17.526Z,4148
2016-09-19T06:19:17.487Z,3836
2016-09-19T06:20:17.492Z,3404
2016-09-19T06:21:17.442Z,3144
2016-09-19T06:22:17.431Z,2904
2016-09-19T06:23:17.458Z,2696
2016-09-19T06:24:17.475Z,2600
2016-09-19T06:25:17.507Z,2572
2016-09-19T06:26:17.442Z,2552
2016-09-19T06:27:17.452Z,2544
2016-09-19T06:28:17.442Z,2548
2016-09-19T06:29:17.419Z,2560
2016-09-19T06:30:17.401Z,2568
2016-09-19T06:31:17.430Z,2580
2016-09-19T06:32:17.413Z,2600
2016-09-19T06:33:17.477Z,2612
2016-09-19T06:34:17.421Z,2628
2016-09-19T06:35:17.432Z,2648
2016-09-19T06:36:17.437Z,2660
2016-09-19T06:37:17.440Z,2672
2016-09-19T06:38:17.465Z,2692
2016-09-19T06:39:17.452Z,2708
2016-09-19T06:40:17.453Z,2724
2016-09-19T06:41:17.444Z,2736
2016-09-19T06:42:17.434Z,2744
2016-09-19T06:43:17.451Z,2756
2016-09-19T06:44:17.443Z,2764
2016-09-19T06:45:17.465Z,2780
2016-09-19T06:46:17.429Z,2788
2016-09-19T06:47:17.480Z,2796
2016-09-19T06:48:17.442Z,2808
2016-09-19T06:49:17.412Z,2816
2016-09-19T06:50:17.442Z,2816
2016-09-19T06:51:17.455Z,2828
2016-09-19T06:52:17.465Z,2844
2016-09-19T06:53:17.529Z,2856
2016-09-19T06:54:17.455Z,2896
2016-09-19T06:55:17.437Z,2936
2016-09-19T06:56:17.471Z,2936
2016-09-19T06:57:18.483Z,2936
2016-09-19T06:58:17.442Z,2948
2016-09-19T06:59:17.436Z,2960
2016-09-19T07:00:17.458Z,2944
2016-09-19T07:01:17.470Z,2948
2016-09-19T07:02:17.454Z,2984
2016-09-19T07:03:17.433Z,2988
2016-09-19T07:04:17.467Z,2952
2016-09-19T07:05:17.475Z,2944
2016-09-19T07:06:17.465Z,2948
2016-09-19T07:07:17.460Z,2964
2016-09-19T07:08:17.464Z,2972
2016-09-19T07:09:17.471Z,2992
2016-09-19T07:10:17.449Z,3000
2016-09-19T07:11:17.450Z,3020
2016-09-19T07:12:17.444Z,3028
2016-09-19T07:13:17.474Z,3060
2016-09-19T07:14:17.439Z,3064
2016-09-19T07:15:17.476Z,3048
2016-09-19T07:16:17.477Z,3044
2016-09-19T07:17:17.461Z,3056
2016-09-19T07:18:17.447Z,3056
2016-09-19T07:19:17.474Z,3052
2016-09-19T07:20:17.497Z,3052
2016-09-19T07:21:17.479Z,3044
2016-09-19T07:22:17.501Z,3052
2016-09-19T07:23:17.445Z,3064
2016-09-19T07:24:17.629Z,3052
2016-09-19T07:25:17.589Z,3052
2016-09-19T07:26:17.570Z,3064
2016-09-19T07:27:21.889Z,3072
2016-09-19T07:28:29.462Z,3080
2016-09-19T07:29:17.578Z,3092
2016-09-19T07:30:17.572Z,3100
2016-09-19T07:31:17.594Z,3120
2016-09-19T07:32:17.541Z,3120
2016-09-19T07:33:17.626Z,3116
2016-09-19T07:34:17.594Z,3108
2016-09-19T07:35:17.565Z,3116
2016-09-19T07:36:17.584Z,3120
2016-09-19T07:37:17.608Z,3128
2016-09-19T07:38:17.543Z,3144
2016-09-19T07:39:17.531Z,3156
2016-09-19T07:40:17.587Z,3168
2016-09-19T07:41:17.592Z,3352
2016-09-19T07:42:17.610Z,3784
2016-09-19T07:43:17.641Z,4476
2016-09-19T07:44:17.591Z,5140
2016-09-19T07:45:17.511Z,5540
2016-09-19T07:46:17.579Z,5712
2016-09-19T07:47:17.563Z,5524
2016-09-19T07:48:17.589Z,5136
2016-09-19T07:49:17.746Z,4764
2016-09-19T07:50:17.545Z,4416
2016-09-19T07:51:17.619Z,4156
2016-09-19T07:52:17.502Z,3848
2016-09-19T07:53:17.479Z,3516
2016-09-19T07:54:17.516Z,3484
2016-09-19T07:55:17.513Z,3608
2016-09-19T07:56:17.589Z,3620
2016-09-19T07:57:17.495Z,3728
2016-09-19T07:58:17.511Z,3852
2016-09-19T07:59:17.501Z,3992
2016-09-19T08:00:17.518Z,4100
2016-09-19T08:01:17.529Z,4236
2016-09-19T08:02:17.561Z,4408
2016-09-19T08:03:17.512Z,4672
2016-09-19T08:04:17.514Z,4732
2016-09-19T08:05:17.544Z,4724
2016-09-19T08:06:17.547Z,4956
2016-09-19T08:07:17.521Z,5036
2016-09-19T08:08:17.512Z,5748
2016-09-19T08:09:17.505Z,6392
2016-09-19T08:10:17.542Z,7236
2016-09-19T08:11:17.555Z,7968
2016-09-19T08:12:17.506Z,8136
2016-09-19T08:13:17.489Z,7796
2016-09-19T08:14:17.499Z,7068
2016-09-19T08:15:17.526Z,7160
2016-09-19T08:16:17.523Z,7908
2016-09-19T08:17:17.517Z,8168
2016-09-19T08:18:17.516Z,8744
2016-09-19T08:19:17.512Z,9772
2016-09-19T08:20:17.539Z,10724
2016-09-19T08:21:17.622Z,10816
2016-09-19T08:22:17.527Z,10520
2016-09-19T08:23:17.565Z,10400
2016-09-19T08:24:17.500Z,10312
2016-09-19T08:25:17.546Z,10728
2016-09-19T08:26:17.530Z,10744
2016-09-19T08:27:17.503Z,10560
2016-09-19T08:28:17.554Z,10116
2016-09-19T08:29:17.575Z,9600
2016-09-19T08:30:17.523Z,9220
2016-09-19T08:31:17.551Z,8732
2016-09-19T08:32:17.543Z,8260
2016-09-19T08:33:17.567Z,8748
2016-09-19T08:34:17.536Z,9620
2016-09-19T08:35:17.532Z,9624
2016-09-19T08:36:17.540Z,9724
2016-09-19T08:37:17.561Z,10132
2016-09-19T08:38:17.515Z,10708
2016-09-19T08:39:17.530Z,11052
2016-09-19T08:40:17.551Z,10820
2016-09-19T08:41:17.557Z,10860
2016-09-19T08:42:17.550Z,10816
2016-09-19T08:43:17.576Z,11292
2016-09-19T08:44:17.521Z,11196
2016-09-19T08:45:17.539Z,11520
2016-09-19T08:46:17.619Z,11956
2016-09-19T08:47:17.591Z,11912
2016-09-19T08:48:17.559Z,11684
2016-09-19T08:49:17.684Z,11544
2016-09-19T08:50:17.779Z,10828
2016-09-19T08:51:17.780Z,10400
2016-09-19T08:52:17.587Z,10484
2016-09-19T08:53:17.677Z,10388
2016-09-19T08:54:17.772Z,9956
2016-09-19T08:55:17.717Z,9780
2016-09-19T08:56:17.924Z,10036
2016-09-19T08:57:17.577Z,10020
2016-09-19T08:58:17.729Z,9604
2016-09-19T08:59:17.547Z,8856
2016-09-19T09:00:17.561Z,8724
2016-09-19T09:01:17.616Z,8332
2016-09-19T09:02:17.569Z,8008
2016-09-19T09:03:17.571Z,8440
2016-09-19T09:04:17.573Z,8896
2016-09-19T09:05:18.313Z,8728
2016-09-19T09:06:17.705Z,8384
2016-09-19T09:07:17.565Z,7844
2016-09-19T09:08:17.598Z,7920
2016-09-19T09:09:17.597Z,7880
2016-09-19T09:10:17.585Z,7368
2016-09-19T09:11:17.609Z,7380
2016-09-19T09:12:17.611Z,7360
2016-09-19T09:13:17.592Z,7516
2016-09-19T09:14:17.602Z,8056
2016-09-19T09:15:17.661Z,7860
2016-09-19T09:16:17.639Z,7052
2016-09-19T09:17:17.623Z,7320
2016-09-19T09:18:17.615Z,6936
2016-09-19T09:19:17.604Z,6612
2016-09-19T09:20:17.591Z,5772
2016-09-19T09:21:17.603Z,4972
2016-09-19T09:22:17.614Z,5076
2016-09-19T09:23:17.613Z,4404
2016-09-19T09:24:17.588Z,3992
2016-09-19T09:25:17.600Z,3948
2016-09-19T09:26:17.561Z,3736
2016-09-19T09:27:17.601Z,3844
2016-09-19T09:28:17.625Z,3936
2016-09-19T09:29:17.594Z,3584
2016-09-19T09:30:17.605Z,3768
2016-09-19T09:31:17.636Z,3564
2016-09-19T09:32:17.633Z,3652
2016-09-19T09:33:17.595Z,3616
2016-09-19T09:34:17.599Z,3540
2016-09-19T09:35:17.579Z,3528
2016-09-19T09:36:17.614Z,3460
2016-09-19T09:37:17.661Z,3516
2016-09-19T09:38:17.612Z,3504
2016-09-19T09:39:17.601Z,3496
2016-09-19T09:40:17.586Z,3448
2016-09-19T09:41:17.630Z,3428
2016-09-19T09:42:17.617Z,3504
2016-09-19T09:43:17.607Z,3548
2016-09-19T09:44:17.622Z,3492
2016-09-19T09:45:17.614Z,3516
2016-09-19T09:46:17.589Z,3532
2016-09-19T09:47:17.608Z,3540
2016-09-19T09:48:17.617Z,3524
2016-09-19T09:49:17.607Z,3516
2016-09-19T09:50:17.627Z,3504
2016-09-19T09:51:17.668Z,3500
2016-09-19T09:52:17.662Z,3504
2016-09-19T09:53:17.647Z,3512
2016-09-19T09:54:17.621Z,3516
2016-09-19T09:55:17.648Z,3524
2016-09-19T09:56:17.653Z,3512
2016-09-19T09:57:17.633Z,3508
2016-09-19T09:58:17.609Z,3528
2016-09-19T09:59:17.605Z,3536
2016-09-19T10:00:17.610Z,3556
2016-09-19T10:01:17.637Z,3568
2016-09-19T10:02:17.675Z,3576
2016-09-19T10:03:17.673Z,3568
2016-09-19T10:04:17.631Z,3568
2016-09-19T10:05:17.609Z,3576
2016-09-19T10:06:17.633Z,3584
2016-09-19T10:07:17.640Z,3596
2016-09-19T10:08:17.606Z,3624
2016-09-19T10:09:17.627Z,3692
2016-09-19T10:10:17.630Z,3780
2016-09-19T10:11:17.665Z,3888
2016-09-19T10:12:17.637Z,4024
2016-09-19T10:13:17.652Z,4156
2016-09-19T10:14:17.652Z,4316
2016-09-19T10:15:17.670Z,4528
2016-09-19T10:16:17.669Z,4732
2016-09-19T10:17:17.671Z,4932
2016-09-19T10:18:17.638Z,5156
2016-09-19T10:19:17.656Z,5328
2016-09-19T10:20:17.639Z,5624
2016-09-19T10:21:17.674Z,6040
2016-09-19T10:22:17.650Z,6476
2016-09-19T10:23:17.632Z,6776
2016-09-19T10:24:17.647Z,7020
2016-09-19T10:25:17.653Z,7540
2016-09-19T10:26:17.647Z,8064
2016-09-19T10:27:17.608Z,8068
2016-09-19T10:28:17.629Z,7560
2016-09-19T10:29:17.640Z,7024
2016-09-19T10:30:17.651Z,6996
2016-09-19T10:31:17.663Z,7224
2016-09-19T10:32:17.641Z,7292
2016-09-19T10:33:17.649Z,7560
2016-09-19T10:34:17.622Z,8248
2016-09-19T10:35:17.644Z,9148
2016-09-19T10:36:17.629Z,10140
2016-09-19T10:37:17.691Z,10548
2016-09-19T10:38:17.681Z,10560
2016-09-19T10:39:17.659Z,10336
2016-09-19T10:40:17.649Z,10352
2016-09-19T10:41:17.656Z,9888
2016-09-19T10:42:17.627Z,9488
2016-09-19T10:43:17.701Z,9548
2016-09-19T10:44:17.647Z,10176
2016-09-19T10:45:17.682Z,11352
2016-09-19T10:46:17.621Z,11996
2016-09-19T10:47:17.618Z,11064
2016-09-19T10:48:17.642Z,9644
2016-09-19T10:49:17.650Z,9008
2016-09-19T10:50:17.667Z,9068
2016-09-19T10:51:17.667Z,9184
2016-09-19T10:52:17.673Z,8876
2016-09-19T10:53:17.677Z,8540
2016-09-19T10:54:17.679Z,8616
2016-09-19T10:55:17.687Z,8216
2016-09-19T10:56:17.680Z,7660
2016-09-19T10:57:17.667Z,7416
2016-09-19T10:58:17.694Z,7552
2016-09-19T10:59:17.699Z,7696
2016-09-19T11:00:17.784Z,8292
2016-09-19T11:01:17.687Z,7592
2016-09-19T11:02:17.710Z,6776
2016-09-19T11:04:17.684Z,6192
2016-09-19T11:05:17.714Z,5920
2016-09-19T11:06:17.734Z,5792
2016-09-19T11:07:17.719Z,5608
2016-09-19T11:08:17.703Z,5500
2016-09-19T11:09:17.684Z,5400
2016-09-19T11:10:17.703Z,5664
2016-09-19T11:11:17.725Z,5920
2016-09-19T11:12:17.684Z,6172
2016-09-19T11:13:17.683Z,6056
2016-09-19T11:14:17.694Z,6088
2016-09-19T11:15:17.681Z,6068
2016-09-19T11:16:17.712Z,6004
2016-09-19T11:17:17.721Z,6168
2016-09-19T11:18:17.726Z,6320
2016-09-19T11:19:17.715Z,6440
2016-09-19T11:20:17.681Z,6404
2016-09-19T11:21:17.713Z,6304
2016-09-19T11:22:17.684Z,6412
2016-09-19T11:23:17.738Z,6532
2016-09-19T11:24:17.719Z,6644
2016-09-19T11:25:17.690Z,6844
2016-09-19T11:26:17.716Z,7012
2016-09-19T11:27:17.709Z,7148
2016-09-19T11:28:17.713Z,7324
2016-09-19T11:29:17.683Z,7504
2016-09-19T11:30:17.721Z,7580
2016-09-19T11:31:17.705Z,7736
2016-09-19T11:32:17.708Z,7840
2016-09-19T11:33:17.705Z,8064
2016-09-19T11:34:17.709Z,8348
2016-09-19T11:35:17.687Z,8444
2016-09-19T11:36:17.754Z,8556
2016-09-19T11:37:17.740Z,8316
2016-09-19T11:38:17.703Z,8192
2016-09-19T11:39:17.783Z,7936
2016-09-19T11:40:17.907Z,8120
2016-09-19T11:41:17.725Z,7932
2016-09-19T11:42:17.720Z,7648
2016-09-19T11:43:17.681Z,7740
2016-09-19T11:44:17.720Z,8004
2016-09-19T11:45:17.723Z,7880
2016-09-19T11:46:17.718Z,7636
2016-09-19T11:47:17.725Z,7748
2016-09-19T11:48:17.722Z,8004
2016-09-19T11:49:17.716Z,8296
2016-09-19T11:50:17.747Z,8296
2016-09-19T11:51:17.802Z,8228
2016-09-19T11:52:17.737Z,8220
2016-09-19T11:53:17.718Z,8124
2016-09-19T11:54:17.736Z,8412
2016-09-19T11:55:17.714Z,8832
2016-09-19T11:56:17.734Z,8664
2016-09-19T11:57:17.713Z,8552
2016-09-19T11:58:17.734Z,8832
2016-09-19T11:59:17.741Z,8728
2016-09-19T12:00:17.743Z,8916
2016-09-19T12:01:17.747Z,9456
2016-09-19T12:02:17.739Z,9876
2016-09-19T12:03:17.749Z,10324
2016-09-19T12:04:17.728Z,10356
2016-09-19T12:05:17.760Z,11096
2016-09-19T12:06:17.791Z,10960
2016-09-19T12:07:17.763Z,10872
2016-09-19T12:08:17.740Z,11504
2016-09-19T12:09:17.791Z,11808
2016-09-19T12:10:17.752Z,11736
2016-09-19T12:11:17.776Z,11364
2016-09-19T12:12:17.887Z,10884
2016-09-19T12:13:17.786Z,10536
2016-09-19T12:14:17.767Z,10444
2016-09-19T12:15:18.372Z,10600
2016-09-19T12:16:18.592Z,10864
2016-09-19T12:17:17.760Z,11124
2016-09-19T12:18:17.795Z,11344
2016-09-19T12:19:17.757Z,11788
2016-09-19T12:20:17.789Z,12012
2016-09-19T12:21:17.786Z,12660
2016-09-19T12:22:17.792Z,13212
2016-09-19T12:23:17.752Z,12976
2016-09-19T12:24:18.079Z,13160
2016-09-19T12:25:17.840Z,13440
2016-09-19T12:26:17.860Z,13544
2016-09-19T12:27:17.833Z,13068
2016-09-19T12:28:17.897Z,12496
2016-09-19T12:29:17.866Z,11756
2016-09-19T12:30:17.815Z,11672
2016-09-19T12:31:17.779Z,10560
2016-09-19T12:32:17.785Z,9792
2016-09-19T12:33:17.843Z,9296
2016-09-19T12:34:17.767Z,8824
2016-09-19T12:35:17.874Z,8400
2016-09-19T12:36:17.763Z,8120
2016-09-19T12:37:17.769Z,7740
2016-09-19T12:38:17.770Z,7596
2016-09-19T12:39:17.799Z,7408
2016-09-19T12:40:17.809Z,7320
2016-09-19T12:41:17.853Z,7508
2016-09-19T12:42:17.815Z,7816
2016-09-19T12:43:17.810Z,8016
2016-09-19T12:44:17.849Z,8184
2016-09-19T12:45:17.881Z,8400
2016-09-19T12:46:17.875Z,8436
2016-09-19T12:47:17.824Z,8284
2016-09-19T12:48:17.841Z,7848
2016-09-19T12:49:17.834Z,7652
2016-09-19T12:50:17.786Z,7608
2016-09-19T12:51:17.817Z,7540
2016-09-19T12:52:17.790Z,7224
2016-09-19T12:53:17.865Z,7092
2016-09-19T12:54:17.808Z,7104
2016-09-19T12:55:17.807Z,7076
2016-09-19T12:56:17.818Z,7236
2016-09-19T12:57:17.821Z,7480
2016-09-19T12:58:17.862Z,7468
2016-09-19T12:59:17.843Z,7348
2016-09-19T13:00:17.872Z,7316
2016-09-19T13:01:17.867Z,7368
2016-09-19T13:02:18.451Z,7588
2016-09-19T13:03:17.838Z,8048
2016-09-19T13:04:17.807Z,8380
2016-09-19T13:05:18.394Z,8496
2016-09-19T13:06:17.863Z,8624
2016-09-19T13:07:17.809Z,8608
2016-09-19T13:08:17.872Z,8464
2016-09-19T13:09:17.847Z,8368
2016-09-19T13:10:17.870Z,8560
2016-09-19T13:11:17.867Z,8964
2016-09-19T13:12:17.907Z,9636
2016-09-19T13:13:17.831Z,10340
2016-09-19T13:14:17.856Z,10996
2016-09-19T13:15:17.824Z,11320
2016-09-19T13:16:17.907Z,11524
2016-09-19T13:17:17.878Z,11632
2016-09-19T13:18:17.923Z,11588
2016-09-19T13:19:17.943Z,11476
2016-09-19T13:20:17.921Z,11520
2016-09-19T13:21:17.844Z,11612
2016-09-19T13:22:17.846Z,11676
2016-09-19T13:23:17.904Z,11700
2016-09-19T13:24:17.916Z,11456
2016-09-19T13:25:17.868Z,11076
2016-09-19T13:26:17.874Z,10620
2016-09-19T13:27:17.897Z,10320
2016-09-19T13:28:17.828Z,10388
2016-09-19T13:29:17.850Z,10592
2016-09-19T13:30:17.911Z,10784
2016-09-19T13:31:17.906Z,10840
2016-09-19T13:32:17.891Z,10920
2016-09-19T13:33:17.840Z,11148
2016-09-19T13:34:17.894Z,11316
2016-09-19T13:35:17.897Z,11488
2016-09-19T13:36:17.840Z,11644
2016-09-19T13:37:17.866Z,11652
2016-09-19T13:38:17.829Z,11632
2016-09-19T13:39:17.866Z,11660
2016-09-19T13:40:17.826Z,11572
2016-09-19T13:41:17.820Z,11556
2016-09-19T13:42:17.865Z,11560
2016-09-19T13:43:17.820Z,11480
2016-09-19T13:44:17.838Z,11348
2016-09-19T13:45:17.864Z,11232
2016-09-19T13:46:17.925Z,11176
2016-09-19T13:47:17.845Z,11060